createdAt,value
2019-06-27T00:02:24.901Z,7.47
2019-06-27T00:04:51.853Z,7.17
2019-06-27T00:07:18.781Z,7.37
2019-06-27T00:09:45.706Z,7.40
2019-06-27T00:12:12.679Z,6.93
2019-06-27T00:14:39.597Z,7.10
2019-06-27T00:17:06.683Z,8.07
2019-06-27T00:19:33.495Z,8.17
2019-06-27T00:22:00.420Z,7.10
2019-06-27T00:24:27.337Z,7.73
2019-06-27T00:26:57.501Z,8.30
2019-06-27T00:29:21.198Z,8.30
2019-06-27T00:31:48.115Z,7.93
2019-06-27T00:34:15.061Z,7.80
2019-06-27T00:36:41.985Z,7.33
2019-06-27T00:39:08.917Z,7.50
2019-06-27T00:41:35.881Z,8.30
2019-06-27T00:44:02.828Z,7.73
2019-06-27T00:46:29.753Z,7.50
2019-06-27T00:48:56.695Z,8.37
2019-06-27T00:51:23.618Z,7.77
2019-06-27T00:53:50.571Z,7.77
2019-06-27T00:56:17.769Z,8.00
2019-06-27T00:58:44.690Z,7.47
2019-06-27T01:01:11.601Z,7.40
2019-06-27T01:03:38.541Z,7.50
2019-06-27T01:06:05.470Z,7.80
2019-06-27T01:08:32.417Z,8.30
2019-06-27T01:10:59.380Z,7.87
2019-06-27T01:13:26.304Z,7.67
2019-06-27T01:15:53.237Z,8.97
2019-06-27T01:18:20.212Z,7.77
2019-06-27T01:20:47.133Z,8.10
2019-06-27T01:23:14.046Z,7.70
2019-06-27T01:25:40.996Z,8.00
2019-06-27T01:28:07.922Z,7.80
2019-06-27T01:30:34.922Z,7.83
2019-06-27T01:33:01.892Z,8.30
2019-06-27T01:35:28.845Z,8.20
2019-06-27T01:37:55.771Z,7.60
2019-06-27T01:40:22.732Z,9.80
2019-06-27T01:42:49.653Z,8.73
2019-06-27T01:45:20.442Z,7.93
2019-06-27T01:47:47.385Z,9.17
2019-06-27T01:50:14.315Z,9.40
2019-06-27T01:52:41.241Z,8.87
2019-06-27T01:55:08.188Z,8.70
2019-06-27T01:57:46.186Z,8.87
2019-06-27T02:00:04.265Z,8.20
2019-06-27T02:02:31.249Z,9.37
2019-06-27T02:04:58.182Z,9.20
2019-06-27T02:07:25.101Z,8.70
2019-06-27T02:09:52.069Z,8.77
2019-06-27T02:12:18.989Z,8.83
2019-06-27T02:14:45.905Z,9.20
2019-06-27T02:17:12.898Z,9.00
2019-06-27T02:19:39.819Z,8.20
2019-06-27T02:22:06.735Z,8.60
2019-06-27T02:24:33.672Z,8.73
2019-06-27T02:27:00.622Z,8.43
2019-06-27T02:29:27.538Z,8.03
2019-06-27T02:31:54.517Z,8.20
2019-06-27T02:34:21.432Z,8.30
2019-06-27T02:36:48.348Z,8.80
2019-06-27T02:39:15.282Z,8.60
2019-06-27T02:41:42.197Z,8.50
2019-06-27T02:44:09.128Z,8.10
2019-06-27T02:46:36.069Z,8.30
2019-06-27T02:49:03.066Z,8.30
2019-06-27T02:51:29.969Z,8.27
2019-06-27T02:53:56.939Z,8.80
2019-06-27T02:56:23.862Z,9.23
2019-06-27T02:58:51.238Z,8.53
2019-06-27T03:01:18.207Z,8.47
2019-06-27T03:03:45.131Z,7.80
2019-06-27T03:06:12.053Z,7.83
2019-06-27T03:08:39.033Z,7.57
2019-06-27T03:11:05.948Z,8.23
2019-06-27T03:13:32.867Z,8.47
2019-06-27T03:16:00.032Z,8.37
2019-06-27T03:18:26.949Z,8.20
2019-06-27T03:20:53.876Z,8.83
2019-06-27T03:23:20.819Z,8.20
2019-06-27T03:25:47.737Z,8.23
2019-06-27T03:28:14.667Z,8.43
2019-06-27T03:30:41.680Z,8.00
2019-06-27T03:33:08.580Z,8.40
2019-06-27T03:35:35.485Z,8.67
2019-06-27T03:38:02.434Z,7.60
2019-06-27T03:40:29.366Z,8.23
2019-06-27T03:42:56.281Z,7.93
2019-06-27T03:45:23.223Z,8.53
2019-06-27T03:47:50.145Z,8.30
2019-06-27T03:50:17.057Z,8.07
2019-06-27T03:52:44.038Z,8.23
2019-06-27T03:55:10.966Z,8.10
2019-06-27T03:57:37.878Z,8.30
2019-06-27T04:00:05.034Z,8.33
2019-06-27T04:02:31.944Z,8.17
2019-06-27T04:04:58.865Z,8.40
2019-06-27T04:07:25.809Z,8.60
2019-06-27T04:09:52.728Z,8.97
2019-06-27T04:12:19.709Z,9.00
2019-06-27T04:14:46.642Z,7.97
2019-06-27T04:17:13.554Z,8.40
2019-06-27T04:19:40.474Z,9.00
2019-06-27T04:22:07.414Z,9.50
2019-06-27T04:24:34.343Z,8.30
2019-06-27T04:27:01.281Z,9.17
2019-06-27T04:29:33.933Z,8.57
2019-06-27T04:31:55.127Z,9.20
2019-06-27T04:34:22.045Z,9.27
2019-06-27T04:36:48.985Z,9.53
2019-06-27T04:39:15.919Z,10.47
2019-06-27T04:41:42.849Z,9.73
2019-06-27T04:44:09.812Z,9.33
2019-06-27T04:46:36.752Z,9.33
2019-06-27T04:49:03.697Z,8.97
2019-06-27T04:51:30.687Z,9.37
2019-06-27T04:53:57.599Z,9.97
2019-06-27T04:56:24.521Z,9.53
2019-06-27T04:58:51.481Z,9.33
2019-06-27T05:01:18.547Z,9.30
2019-06-27T05:03:45.461Z,9.27
2019-06-27T05:06:12.400Z,10.57
2019-06-27T05:08:39.331Z,9.30
2019-06-27T05:11:06.258Z,10.60
2019-06-27T05:13:33.185Z,10.20
2019-06-27T05:16:00.109Z,9.53
2019-06-27T05:18:27.025Z,9.47
2019-06-27T05:20:53.966Z,9.57
2019-06-27T05:23:20.882Z,10.33
2019-06-27T05:25:47.805Z,8.97
2019-06-27T05:28:14.752Z,9.53
2019-06-27T05:30:41.679Z,10.93
2019-06-27T05:33:08.594Z,9.57
2019-06-27T05:35:35.566Z,8.57
2019-06-27T05:38:02.470Z,8.63
2019-06-27T05:40:29.388Z,9.60
2019-06-27T05:42:56.480Z,8.77
2019-06-27T05:45:23.307Z,9.70
2019-06-27T05:47:50.253Z,10.70
2019-06-27T05:50:17.197Z,12.53
2019-06-27T05:52:44.108Z,10.03
2019-06-27T05:55:11.020Z,12.10
2019-06-27T05:57:37.986Z,10.97
2019-06-27T06:00:04.989Z,9.70
2019-06-27T06:02:32.212Z,8.23
2019-06-27T06:04:59.187Z,9.20
2019-06-27T06:07:26.098Z,13.53
2019-06-27T06:09:53.004Z,10.37
2019-06-27T06:12:20.265Z,10.23
2019-06-27T06:14:47.177Z,10.50
2019-06-27T06:17:14.087Z,10.40
2019-06-27T06:19:41.035Z,13.57
2019-06-27T06:22:07.956Z,10.23
2019-06-27T06:24:34.880Z,9.20
2019-06-27T06:27:01.842Z,8.90
2019-06-27T06:29:28.755Z,9.60
2019-06-27T06:31:55.711Z,9.43
2019-06-27T06:34:22.613Z,9.30
2019-06-27T06:36:49.520Z,9.20
2019-06-27T06:39:16.439Z,9.83
2019-06-27T06:41:43.384Z,8.93
2019-06-27T06:44:10.300Z,8.70
2019-06-27T06:46:37.208Z,11.83
2019-06-27T06:49:04.146Z,11.43
2019-06-27T06:51:31.122Z,9.10
2019-06-27T06:53:57.996Z,8.43
2019-06-27T06:56:24.940Z,8.83
2019-06-27T06:58:51.856Z,8.23
2019-06-27T07:01:18.761Z,8.50
2019-06-27T07:03:47.888Z,8.60
2019-06-27T07:06:14.801Z,8.27
2019-06-27T07:08:41.717Z,8.47
2019-06-27T07:11:08.654Z,7.87
2019-06-27T07:13:35.572Z,8.33
2019-06-27T07:16:02.539Z,8.20
2019-06-27T07:18:29.458Z,9.00
2019-06-27T07:20:56.377Z,8.40
2019-06-27T07:23:23.297Z,7.77
2019-06-27T07:25:50.275Z,8.50
2019-06-27T07:28:17.191Z,8.30
2019-06-27T07:30:44.119Z,8.37
2019-06-27T07:33:11.044Z,8.00
2019-06-27T07:35:37.968Z,8.50
2019-06-27T07:38:04.886Z,8.53
2019-06-27T07:40:31.831Z,8.15
2019-06-27T07:42:58.746Z,8.15
2019-06-27T07:45:25.675Z,8.50
2019-06-27T07:47:52.611Z,8.53
2019-06-27T07:50:19.529Z,7.90
2019-06-27T07:52:46.447Z,8.23
2019-06-27T07:55:13.388Z,8.88
2019-06-27T07:57:40.317Z,8.00
2019-06-27T08:00:07.242Z,8.00
2019-06-27T08:02:34.184Z,8.03
2019-06-27T08:05:01.343Z,8.48
2019-06-27T08:07:28.253Z,8.03
2019-06-27T08:09:55.224Z,8.30
2019-06-27T08:12:22.346Z,8.03
2019-06-27T08:14:49.270Z,8.03
2019-06-27T08:17:16.210Z,7.70
2019-06-27T08:19:43.138Z,8.20
2019-06-27T08:22:10.063Z,7.97
2019-06-27T08:24:37.025Z,7.58
2019-06-27T08:27:03.972Z,8.08
2019-06-27T08:29:30.896Z,7.58
2019-06-27T08:31:57.830Z,7.33
2019-06-27T08:34:24.745Z,8.08
2019-06-27T08:36:51.665Z,7.72
2019-06-27T08:39:18.603Z,7.65
2019-06-27T08:41:45.527Z,8.28
2019-06-27T08:44:12.428Z,7.35
2019-06-27T08:46:39.406Z,8.18
2019-06-27T08:49:06.317Z,7.85
2019-06-27T08:51:33.244Z,8.20
2019-06-27T08:54:00.215Z,7.55
2019-06-27T08:56:27.133Z,8.03
2019-06-27T08:58:54.049Z,7.80
2019-06-27T09:01:21.004Z,7.50
2019-06-27T09:03:47.927Z,7.97
2019-06-27T09:06:16.150Z,7.75
2019-06-27T09:08:43.096Z,8.43
2019-06-27T09:11:10.014Z,8.68
2019-06-27T09:13:36.952Z,8.75
2019-06-27T09:16:03.881Z,7.72
2019-06-27T09:18:30.804Z,7.95
2019-06-27T09:20:57.721Z,7.90
2019-06-27T09:23:24.719Z,8.20
2019-06-27T09:25:51.641Z,7.45
2019-06-27T09:28:18.574Z,7.60
2019-06-27T09:30:45.512Z,7.72
2019-06-27T09:33:12.432Z,7.30
2019-06-27T09:35:39.352Z,7.67
2019-06-27T09:38:06.307Z,6.80
2019-06-27T09:40:33.245Z,6.83
2019-06-27T09:43:00.164Z,7.17
2019-06-27T09:45:27.100Z,7.30
2019-06-27T09:47:54.015Z,7.17
2019-06-27T09:50:21.724Z,7.28
2019-06-27T09:52:47.867Z,7.05
2019-06-27T09:55:14.808Z,7.40
2019-06-27T09:57:41.741Z,7.28
2019-06-27T10:00:08.706Z,6.58
2019-06-27T10:02:41.884Z,7.30
2019-06-27T10:05:02.922Z,7.83
2019-06-27T10:07:31.318Z,6.47
2019-06-27T10:09:58.234Z,7.37
2019-06-27T10:12:40.978Z,7.05
2019-06-27T10:14:52.420Z,7.53
2019-06-27T10:17:19.328Z,7.00
2019-06-27T10:19:46.244Z,7.00
2019-06-27T10:22:13.208Z,7.30
2019-06-27T10:24:40.148Z,7.15
2019-06-27T10:27:07.065Z,7.10
2019-06-27T10:29:34.029Z,6.67
2019-06-27T10:32:01.054Z,6.87
2019-06-27T10:34:27.993Z,6.70
2019-06-27T10:36:54.909Z,6.83
2019-06-27T10:39:21.827Z,6.55
2019-06-27T10:41:48.757Z,6.50
2019-06-27T10:44:15.685Z,6.53
2019-06-27T10:46:42.684Z,6.47
2019-06-27T10:49:09.580Z,6.78
2019-06-27T10:51:36.484Z,6.33
2019-06-27T10:54:03.414Z,6.90
2019-06-27T10:56:30.329Z,6.40
2019-06-27T10:58:57.264Z,6.75
2019-06-27T11:01:24.189Z,6.67
2019-06-27T11:03:51.105Z,6.60
2019-06-27T11:06:18.052Z,6.70
2019-06-27T11:08:45.127Z,6.55
2019-06-27T11:11:12.062Z,6.40
2019-06-27T11:13:39.030Z,6.58
2019-06-27T11:16:05.954Z,6.42
2019-06-27T11:18:32.876Z,5.92
2019-06-27T11:20:59.827Z,5.72
2019-06-27T11:23:26.743Z,6.03
2019-06-27T11:25:53.666Z,5.92
2019-06-27T11:28:20.598Z,5.87
2019-06-27T11:30:47.524Z,5.58
2019-06-27T11:33:31.304Z,5.40
2019-06-27T11:35:41.380Z,5.55
2019-06-27T11:38:08.300Z,5.30
2019-06-27T11:40:35.257Z,5.47
2019-06-27T11:43:02.467Z,5.47
2019-06-27T11:45:29.140Z,5.12
2019-06-27T11:47:56.060Z,5.55
2019-06-27T11:50:22.998Z,4.87
2019-06-27T11:52:49.922Z,5.08
2019-06-27T11:55:17.068Z,4.97
2019-06-27T11:57:44.005Z,4.62
2019-06-27T12:00:10.962Z,5.28
2019-06-27T12:02:37.844Z,4.78
2019-06-27T12:05:04.839Z,4.60
2019-06-27T12:07:31.763Z,5.12
2019-06-27T12:10:00.008Z,5.10
2019-06-27T12:12:26.956Z,5.40
2019-06-27T12:14:53.877Z,4.72
2019-06-27T12:17:20.912Z,4.50
2019-06-27T12:19:47.848Z,4.60
2019-06-27T12:22:14.767Z,5.28
2019-06-27T12:24:41.684Z,4.92
2019-06-27T12:27:08.628Z,5.10
2019-06-27T12:29:35.553Z,5.08
2019-06-27T12:32:02.477Z,5.10
2019-06-27T12:34:29.433Z,5.22
2019-06-27T12:36:56.353Z,4.90
2019-06-27T12:39:23.271Z,5.08
2019-06-27T12:41:50.212Z,4.87
2019-06-27T12:44:17.128Z,4.85
2019-06-27T12:46:44.048Z,4.40
2019-06-27T12:49:10.996Z,5.03
2019-06-27T12:51:37.925Z,4.67
2019-06-27T12:54:04.849Z,4.65
2019-06-27T12:56:31.795Z,4.50
2019-06-27T12:58:58.712Z,4.28
2019-06-27T13:01:25.630Z,4.42
2019-06-27T13:03:52.572Z,4.00
2019-06-27T13:06:19.489Z,4.47
2019-06-27T13:08:46.405Z,4.30
2019-06-27T13:11:14.836Z,4.65
2019-06-27T13:13:41.764Z,4.03
2019-06-27T13:16:08.678Z,4.45
2019-06-27T13:18:35.609Z,4.50
2019-06-27T13:21:02.526Z,4.40
2019-06-27T13:23:29.454Z,4.40
2019-06-27T13:25:56.419Z,4.65
2019-06-27T13:28:23.352Z,4.37
2019-06-27T13:30:50.277Z,4.40
2019-06-27T13:33:17.217Z,4.50
2019-06-27T13:35:44.138Z,4.70
2019-06-27T13:38:11.062Z,4.58
2019-06-27T13:40:38.048Z,4.40
2019-06-27T13:43:04.939Z,4.58
2019-06-27T13:45:31.861Z,4.58
2019-06-27T13:47:58.834Z,4.42
2019-06-27T13:50:25.729Z,4.90
2019-06-27T13:52:54.694Z,4.70
2019-06-27T13:55:22.909Z,4.72
2019-06-27T13:57:46.547Z,4.87
2019-06-27T14:00:13.489Z,4.80
2019-06-27T14:02:40.430Z,4.67
2019-06-27T14:05:07.440Z,5.30
2019-06-27T14:07:34.377Z,4.80
2019-06-27T14:10:01.327Z,4.85
2019-06-27T14:12:29.108Z,4.70
2019-06-27T14:15:00.101Z,5.33
2019-06-27T14:17:22.987Z,4.90
2019-06-27T14:19:50.926Z,4.85
2019-06-27T14:22:33.037Z,4.92
2019-06-27T14:24:43.815Z,5.15
2019-06-27T14:27:10.735Z,5.33
2019-06-27T14:29:37.668Z,5.45
2019-06-27T14:32:04.648Z,5.25
2019-06-27T14:34:31.556Z,5.62
2019-06-27T14:36:58.481Z,4.90
2019-06-27T14:39:25.425Z,5.58
2019-06-27T14:41:52.334Z,5.47
2019-06-27T14:44:19.252Z,5.90
2019-06-27T14:46:46.243Z,5.62
2019-06-27T14:49:13.164Z,5.40
2019-06-27T14:51:40.482Z,5.65
2019-06-27T14:54:08.119Z,6.17
2019-06-27T14:56:35.048Z,5.75
2019-06-27T14:59:01.972Z,6.05
2019-06-27T15:01:28.916Z,5.90
2019-06-27T15:03:55.841Z,5.97
2019-06-27T15:06:22.764Z,6.62
2019-06-27T15:08:49.720Z,6.08
2019-06-27T15:11:16.654Z,6.28
2019-06-27T15:13:44.904Z,6.15
2019-06-27T15:16:12.546Z,6.37
2019-06-27T15:18:38.801Z,6.37
2019-06-27T15:21:05.724Z,5.90
2019-06-27T15:23:32.660Z,5.95
2019-06-27T15:25:59.584Z,6.28
2019-06-27T15:28:26.510Z,5.83
2019-06-27T15:30:53.460Z,5.72
2019-06-27T15:33:20.385Z,6.12
2019-06-27T15:35:52.382Z,5.95
2019-06-27T15:38:14.261Z,5.80
2019-06-27T15:40:47.455Z,6.00
2019-06-27T15:43:14.381Z,5.90
2019-06-27T15:45:41.356Z,5.80
2019-06-27T15:48:08.288Z,5.85
2019-06-27T15:50:35.264Z,5.47
2019-06-27T15:53:02.137Z,5.67
2019-06-27T15:55:29.048Z,5.10
2019-06-27T15:57:55.979Z,5.30
2019-06-27T16:00:22.929Z,5.10
2019-06-27T16:02:49.841Z,4.70
2019-06-27T16:05:16.827Z,4.90
2019-06-27T16:07:43.692Z,5.08
2019-06-27T16:10:10.613Z,5.10
2019-06-27T16:12:37.555Z,5.00
2019-06-27T16:15:04.813Z,5.53
2019-06-27T16:17:31.740Z,4.33
2019-06-27T16:19:58.664Z,4.70
2019-06-27T16:22:25.599Z,5.17
2019-06-27T16:24:52.521Z,4.85
2019-06-27T16:27:19.445Z,4.55
2019-06-27T16:29:46.397Z,4.60
2019-06-27T16:32:13.627Z,6.53
2019-06-27T16:34:40.548Z,6.72
2019-06-27T16:37:07.526Z,4.37
2019-06-27T16:39:34.457Z,3.75
2019-06-27T16:42:01.402Z,3.83
2019-06-27T16:44:28.318Z,3.55
2019-06-27T16:46:55.237Z,4.97
2019-06-27T16:49:22.153Z,5.22
2019-06-27T16:51:49.096Z,3.33
2019-06-27T16:54:16.019Z,3.08
2019-06-27T16:56:42.928Z,2.70
2019-06-27T16:59:09.878Z,2.98
2019-06-27T17:01:36.808Z,3.00
2019-06-27T17:04:03.732Z,2.80
2019-06-27T17:06:41.361Z,2.87
2019-06-27T17:08:57.597Z,3.95
2019-06-27T17:11:24.512Z,2.97
2019-06-27T17:13:51.454Z,2.37
2019-06-27T17:16:22.200Z,2.50
2019-06-27T17:18:46.702Z,2.45
2019-06-27T17:21:13.644Z,2.62
2019-06-27T17:23:40.594Z,2.10
2019-06-27T17:26:11.317Z,2.45
2019-06-27T17:28:35.446Z,2.20
2019-06-27T17:31:01.349Z,2.30
2019-06-27T17:33:28.265Z,2.05
2019-06-27T17:35:55.216Z,1.90
2019-06-27T17:38:22.142Z,2.10
2019-06-27T17:40:49.053Z,2.00
2019-06-27T17:43:16.027Z,2.00
2019-06-27T17:45:42.954Z,2.00
2019-06-27T17:48:09.855Z,1.70
2019-06-27T17:50:36.801Z,1.82
2019-06-27T17:53:03.718Z,1.83
2019-06-27T17:55:30.647Z,1.90
2019-06-27T17:57:57.584Z,2.13
2019-06-27T18:00:24.501Z,1.98
2019-06-27T18:02:51.426Z,1.83
2019-06-27T18:05:18.795Z,1.70
2019-06-27T18:07:45.291Z,1.90
2019-06-27T18:10:12.217Z,2.00
2019-06-27T18:12:39.175Z,1.97
2019-06-27T18:15:06.101Z,1.67
2019-06-27T18:17:34.383Z,1.90
2019-06-27T18:20:01.152Z,1.60
2019-06-27T18:22:28.084Z,1.60
2019-06-27T18:24:55.010Z,1.75
2019-06-27T18:27:22.313Z,1.80
2019-06-27T18:29:49.232Z,2.00
2019-06-27T18:32:16.149Z,1.47
2019-06-27T18:34:43.116Z,1.90
2019-06-27T18:37:10.062Z,1.77
2019-06-27T18:39:37.005Z,1.60
2019-06-27T18:42:03.942Z,1.57
2019-06-27T18:44:30.870Z,1.60
2019-06-27T18:46:57.777Z,1.60
2019-06-27T18:49:24.700Z,1.30
2019-06-27T18:51:51.640Z,1.70
2019-06-27T18:54:18.544Z,1.80
2019-06-27T18:56:45.472Z,1.60
2019-06-27T18:59:12.384Z,1.80
2019-06-27T19:01:39.313Z,1.93
2019-06-27T19:04:06.240Z,1.40
2019-06-27T19:06:33.156Z,1.93
2019-06-27T19:09:00.069Z,1.80
2019-06-27T19:11:27.011Z,1.87
2019-06-27T19:13:53.976Z,2.23
2019-06-27T19:16:21.026Z,2.10
2019-06-27T19:18:51.375Z,2.17
2019-06-27T19:21:22.264Z,1.97
2019-06-27T19:23:54.065Z,1.90
2019-06-27T19:26:20.961Z,1.77
2019-06-27T19:28:47.882Z,1.70
2019-06-27T19:31:14.840Z,2.17
2019-06-27T19:33:41.782Z,1.73
2019-06-27T19:36:08.720Z,1.83
2019-06-27T19:38:35.653Z,1.60
2019-06-27T19:41:03.942Z,1.97
2019-06-27T19:43:30.873Z,1.80
2019-06-27T19:45:57.804Z,1.53
2019-06-27T19:48:24.742Z,1.87
2019-06-27T19:50:51.653Z,1.80
2019-06-27T19:53:18.594Z,1.90
2019-06-27T19:55:45.523Z,1.90
2019-06-27T19:58:12.441Z,1.70
2019-06-27T20:00:39.376Z,1.60
2019-06-27T20:03:06.301Z,1.57
2019-06-27T20:05:33.235Z,1.80
2019-06-27T20:08:00.193Z,1.50
2019-06-27T20:10:27.149Z,1.47
2019-06-27T20:12:54.036Z,1.90
2019-06-27T20:15:20.968Z,1.67
2019-06-27T20:17:47.892Z,2.20
2019-06-27T20:20:15.156Z,2.07
2019-06-27T20:22:42.095Z,5.50
2019-06-27T20:25:09.014Z,6.43
2019-06-27T20:27:35.929Z,6.57
2019-06-27T20:30:03.039Z,2.20
2019-06-27T20:32:29.967Z,1.50
2019-06-27T20:34:56.887Z,1.40
2019-06-27T20:37:26.784Z,1.53
2019-06-27T20:39:50.748Z,1.53
2019-06-27T20:42:17.670Z,1.70
2019-06-27T20:44:44.806Z,6.20
2019-06-27T20:47:11.715Z,9.70
2019-06-27T20:49:38.632Z,6.07
2019-06-27T20:52:05.606Z,2.33
2019-06-27T20:54:32.529Z,11.67
2019-06-27T20:56:59.528Z,16.83
2019-06-27T20:59:26.423Z,5.90
2019-06-27T21:01:53.342Z,1.80
2019-06-27T21:04:20.253Z,1.73
2019-06-27T21:06:47.219Z,1.73
2019-06-27T21:09:14.137Z,1.30
2019-06-27T21:11:41.065Z,1.40
2019-06-27T21:14:08.029Z,8.90
2019-06-27T21:16:34.950Z,2.93
2019-06-27T21:19:01.873Z,4.37
2019-06-27T21:21:29.020Z,1.70
2019-06-27T21:23:55.940Z,1.80
2019-06-27T21:26:22.864Z,7.10
2019-06-27T21:28:49.793Z,7.33
2019-06-27T21:31:16.717Z,2.30
2019-06-27T21:33:43.641Z,1.83
2019-06-27T21:36:10.583Z,1.80
2019-06-27T21:38:37.546Z,1.90
2019-06-27T21:41:04.420Z,2.00
2019-06-27T21:43:31.358Z,1.80
2019-06-27T21:45:58.265Z,1.83
2019-06-27T21:48:25.176Z,1.90
2019-06-27T21:50:52.306Z,1.50
2019-06-27T21:53:19.200Z,1.80
2019-06-27T21:55:46.120Z,1.67
2019-06-27T21:58:13.053Z,1.73
2019-06-27T22:00:39.975Z,1.90
2019-06-27T22:03:06.887Z,1.87
2019-06-27T22:05:33.839Z,2.00
2019-06-27T22:08:00.741Z,1.60
2019-06-27T22:10:27.661Z,2.13
2019-06-27T22:12:54.588Z,2.37
2019-06-27T22:15:21.513Z,1.90
2019-06-27T22:17:48.428Z,1.90
2019-06-27T22:20:16.071Z,2.10
2019-06-27T22:22:42.641Z,1.90
2019-06-27T22:25:09.560Z,2.00
2019-06-27T22:27:36.493Z,2.20
2019-06-27T22:30:03.966Z,2.10
2019-06-27T22:32:30.893Z,2.10
2019-06-27T22:34:57.863Z,1.90
2019-06-27T22:37:24.416Z,2.10
2019-06-27T22:39:58.524Z,2.20
2019-06-27T22:42:31.109Z,2.07
2019-06-27T22:45:03.687Z,2.30
2019-06-27T22:47:36.312Z,1.93
2019-06-27T22:50:07.132Z,2.00
2019-06-27T22:52:54.430Z,2.10
2019-06-27T22:55:22.572Z,2.23
2019-06-27T22:57:49.494Z,2.13
2019-06-27T23:00:16.427Z,2.17
2019-06-27T23:02:43.383Z,2.33
2019-06-27T23:05:10.314Z,2.33
2019-06-27T23:07:37.225Z,2.27
2019-06-27T23:10:04.222Z,2.43
2019-06-27T23:12:31.140Z,2.90
2019-06-27T23:14:58.055Z,2.40
2019-06-27T23:17:24.996Z,2.40
2019-06-27T23:19:51.921Z,2.47
2019-06-27T23:22:18.828Z,2.23
2019-06-27T23:24:46.048Z,2.63
2019-06-27T23:27:12.968Z,2.30
2019-06-27T23:29:39.891Z,2.60
2019-06-27T23:32:07.496Z,2.33
2019-06-27T23:34:34.417Z,2.20
2019-06-27T23:37:01.329Z,2.07
2019-06-27T23:39:28.269Z,2.23
2019-06-27T23:41:55.185Z,2.53
2019-06-27T23:44:22.109Z,2.40
2019-06-27T23:46:49.052Z,2.30
2019-06-27T23:49:15.967Z,2.20
2019-06-27T23:51:42.901Z,2.47
2019-06-27T23:54:09.835Z,2.23
2019-06-27T23:56:36.756Z,2.23
2019-06-27T23:59:03.736Z,1.90
